sensor_id;sensor_type;location;lat;lon;timestamp;temperature;humidity
66708;DHT22;53622;0.000;0.000;2023-03-26T00:02:07;21.50;53.90
66708;DHT22;53622;0.000;0.000;2023-03-26T00:04:36;21.50;53.90
66708;DHT22;53622;0.000;0.000;2023-03-26T00:07:07;21.50;53.90
66708;DHT22;53622;0.000;0.000;2023-03-26T00:09:37;21.40;53.80
66708;DHT22;53622;0.000;0.000;2023-03-26T00:12:06;21.50;53.90
66708;DHT22;53622;0.000;0.000;2023-03-26T00:14:36;21.40;53.80
66708;DHT22;53622;0.000;0.000;2023-03-26T00:17:05;21.50;53.90
66708;DHT22;53622;0.000;0.000;2023-03-26T00:19:35;21.40;53.70
66708;DHT22;53622;0.000;0.000;2023-03-26T00:22:04;21.40;53.70
66708;DHT22;53622;0.000;0.000;2023-03-26T00:24:35;21.40;53.70
66708;DHT22;53622;0.000;0.000;2023-03-26T00:27:06;21.40;53.70
66708;DHT22;53622;0.000;0.000;2023-03-26T00:29:36;21.40;53.70
66708;DHT22;53622;0.000;0.000;2023-03-26T00:32:06;21.40;53.70
66708;DHT22;53622;0.000;0.000;2023-03-26T00:34:35;21.40;53.60
66708;DHT22;53622;0.000;0.000;2023-03-26T00:37:08;21.40;53.50
66708;DHT22;53622;0.000;0.000;2023-03-26T00:39:40;21.40;53.60
66708;DHT22;53622;0.000;0.000;2023-03-26T00:42:11;21.40;53.60
66708;DHT22;53622;0.000;0.000;2023-03-26T00:44:41;21.40;53.50
66708;DHT22;53622;0.000;0.000;2023-03-26T00:47:10;21.30;53.50
66708;DHT22;53622;0.000;0.000;2023-03-26T00:49:39;21.30;53.50
66708;DHT22;53622;0.000;0.000;2023-03-26T00:52:09;21.40;53.50
66708;DHT22;53622;0.000;0.000;2023-03-26T00:54:39;21.30;53.40
66708;DHT22;53622;0.000;0.000;2023-03-26T00:57:09;21.30;53.40
66708;DHT22;53622;0.000;0.000;2023-03-26T00:59:52;21.30;53.40
66708;DHT22;53622;0.000;0.000;2023-03-26T01:02:21;21.30;54.00
66708;DHT22;53622;0.000;0.000;2023-03-26T01:04:56;21.30;53.40
66708;DHT22;53622;0.000;0.000;2023-03-26T01:07:29;21.30;53.30
66708;DHT22;53622;0.000;0.000;2023-03-26T01:10:00;21.30;53.30
66708;DHT22;53622;0.000;0.000;2023-03-26T01:12:30;21.30;53.20
66708;DHT22;53622;0.000;0.000;2023-03-26T01:15:00;21.30;53.30
66708;DHT22;53622;0.000;0.000;2023-03-26T01:17:31;21.30;53.30
66708;DHT22;53622;0.000;0.000;2023-03-26T01:20:12;21.30;53.30
66708;DHT22;53622;0.000;0.000;2023-03-26T01:22:46;21.30;53.20
66708;DHT22;53622;0.000;0.000;2023-03-26T01:25:20;21.30;53.20
66708;DHT22;53622;0.000;0.000;2023-03-26T01:27:53;21.20;53.10
66708;DHT22;53622;0.000;0.000;2023-03-26T01:30:28;21.30;53.10
66708;DHT22;53622;0.000;0.000;2023-03-26T01:33:04;21.20;53.10
66708;DHT22;53622;0.000;0.000;2023-03-26T01:35:44;21.20;53.10
66708;DHT22;53622;0.000;0.000;2023-03-26T01:38:23;21.20;53.10
66708;DHT22;53622;0.000;0.000;2023-03-26T01:40:59;21.30;53.10
66708;DHT22;53622;0.000;0.000;2023-03-26T01:43:36;21.30;53.10
66708;DHT22;53622;0.000;0.000;2023-03-26T01:46:08;21.20;53.10
66708;DHT22;53622;0.000;0.000;2023-03-26T01:48:40;21.20;53.00
66708;DHT22;53622;0.000;0.000;2023-03-26T01:51:11;21.20;53.00
66708;DHT22;53622;0.000;0.000;2023-03-26T01:53:42;21.20;53.00
66708;DHT22;53622;0.000;0.000;2023-03-26T01:56:17;21.20;53.00
66708;DHT22;53622;0.000;0.000;2023-03-26T01:58:59;21.20;53.00
66708;DHT22;53622;0.000;0.000;2023-03-26T02:01:35;21.20;53.00
66708;DHT22;53622;0.000;0.000;2023-03-26T02:04:20;21.20;53.00
66708;DHT22;53622;0.000;0.000;2023-03-26T02:06:54;21.20;52.90
66708;DHT22;53622;0.000;0.000;2023-03-26T02:09:29;21.20;52.90
66708;DHT22;53622;0.000;0.000;2023-03-26T02:12:02;21.20;52.90
66708;DHT22;53622;0.000;0.000;2023-03-26T02:14:32;21.20;53.00
66708;DHT22;53622;0.000;0.000;2023-03-26T02:17:01;21.20;52.90
66708;DHT22;53622;0.000;0.000;2023-03-26T02:19:30;21.20;52.90
66708;DHT22;53622;0.000;0.000;2023-03-26T02:22:00;21.20;52.80
66708;DHT22;53622;0.000;0.000;2023-03-26T02:24:31;21.20;52.80
66708;DHT22;53622;0.000;0.000;2023-03-26T02:27:02;21.10;52.80
66708;DHT22;53622;0.000;0.000;2023-03-26T02:29:35;21.10;52.80
66708;DHT22;53622;0.000;0.000;2023-03-26T02:32:10;21.10;52.80
66708;DHT22;53622;0.000;0.000;2023-03-26T02:34:40;21.10;52.80
66708;DHT22;53622;0.000;0.000;2023-03-26T02:37:09;21.10;52.80
66708;DHT22;53622;0.000;0.000;2023-03-26T02:39:41;21.10;52.80
66708;DHT22;53622;0.000;0.000;2023-03-26T02:42:22;21.10;52.80
66708;DHT22;53622;0.000;0.000;2023-03-26T02:44:52;21.10;52.80
66708;DHT22;53622;0.000;0.000;2023-03-26T02:47:44;21.10;52.70
66708;DHT22;53622;0.000;0.000;2023-03-26T02:50:36;21.10;52.70
66708;DHT22;53622;0.000;0.000;2023-03-26T02:53:29;21.10;52.70
66708;DHT22;53622;0.000;0.000;2023-03-26T02:56:19;21.10;52.70
66708;DHT22;53622;0.000;0.000;2023-03-26T02:59:03;21.10;52.70
66708;DHT22;53622;0.000;0.000;2023-03-26T03:01:32;21.10;52.70
66708;DHT22;53622;0.000;0.000;2023-03-26T03:04:03;21.10;52.70
66708;DHT22;53622;0.000;0.000;2023-03-26T03:06:36;21.10;52.60
66708;DHT22;53622;0.000;0.000;2023-03-26T03:09:07;21.00;52.60
66708;DHT22;53622;0.000;0.000;2023-03-26T03:11:37;21.10;52.70
66708;DHT22;53622;0.000;0.000;2023-03-26T03:14:09;21.10;52.60
66708;DHT22;53622;0.000;0.000;2023-03-26T03:16:38;21.00;52.50
66708;DHT22;53622;0.000;0.000;2023-03-26T03:19:10;21.00;52.60
66708;DHT22;53622;0.000;0.000;2023-03-26T03:21:40;21.00;52.60
66708;DHT22;53622;0.000;0.000;2023-03-26T03:24:10;21.00;52.50
66708;DHT22;53622;0.000;0.000;2023-03-26T03:26:43;21.00;52.60
66708;DHT22;53622;0.000;0.000;2023-03-26T03:29:32;21.00;52.60
66708;DHT22;53622;0.000;0.000;2023-03-26T03:32:22;21.00;52.60
66708;DHT22;53622;0.000;0.000;2023-03-26T03:34:54;21.00;52.60
66708;DHT22;53622;0.000;0.000;2023-03-26T03:37:23;21.00;52.60
66708;DHT22;53622;0.000;0.000;2023-03-26T03:39:55;21.00;52.50
66708;DHT22;53622;0.000;0.000;2023-03-26T03:42:26;21.00;52.50
66708;DHT22;53622;0.000;0.000;2023-03-26T03:45:01;21.00;52.50
66708;DHT22;53622;0.000;0.000;2023-03-26T03:47:53;21.00;52.40
66708;DHT22;53622;0.000;0.000;2023-03-26T03:50:36;21.00;52.50
66708;DHT22;53622;0.000;0.000;2023-03-26T03:53:38;20.90;52.40
66708;DHT22;53622;0.000;0.000;2023-03-26T03:56:09;20.90;52.40
66708;DHT22;53622;0.000;0.000;2023-03-26T03:59:10;20.90;52.50
66708;DHT22;53622;0.000;0.000;2023-03-26T04:01:40;20.90;52.40
66708;DHT22;53622;0.000;0.000;2023-03-26T04:04:23;21.00;52.50
66708;DHT22;53622;0.000;0.000;2023-03-26T04:06:59;20.90;52.40
66708;DHT22;53622;0.000;0.000;2023-03-26T04:09:52;20.90;52.30
66708;DHT22;53622;0.000;0.000;2023-03-26T04:12:23;20.90;52.30
66708;DHT22;53622;0.000;0.000;2023-03-26T04:15:01;20.90;52.40
66708;DHT22;53622;0.000;0.000;2023-03-26T04:17:32;20.90;52.30
66708;DHT22;53622;0.000;0.000;2023-03-26T04:20:12;20.90;52.30
66708;DHT22;53622;0.000;0.000;2023-03-26T04:22:45;20.90;52.30
66708;DHT22;53622;0.000;0.000;2023-03-26T04:25:17;20.90;52.30
66708;DHT22;53622;0.000;0.000;2023-03-26T04:27:50;20.90;52.30
66708;DHT22;53622;0.000;0.000;2023-03-26T04:30:37;20.90;52.30
66708;DHT22;53622;0.000;0.000;2023-03-26T04:33:33;20.90;52.20
66708;DHT22;53622;0.000;0.000;2023-03-26T04:36:05;20.90;52.30
66708;DHT22;53622;0.000;0.000;2023-03-26T04:38:40;20.90;52.30
66708;DHT22;53622;0.000;0.000;2023-03-26T04:41:12;20.90;52.30
66708;DHT22;53622;0.000;0.000;2023-03-26T04:43:58;20.90;52.30
66708;DHT22;53622;0.000;0.000;2023-03-26T04:46:42;20.90;52.20
66708;DHT22;53622;0.000;0.000;2023-03-26T04:49:20;20.90;52.30
66708;DHT22;53622;0.000;0.000;2023-03-26T04:51:50;20.90;52.20
66708;DHT22;53622;0.000;0.000;2023-03-26T04:54:37;20.90;52.30
66708;DHT22;53622;0.000;0.000;2023-03-26T04:57:14;20.90;52.30
66708;DHT22;53622;0.000;0.000;2023-03-26T04:59:48;20.90;52.30
66708;DHT22;53622;0.000;0.000;2023-03-26T05:02:18;20.90;52.20
66708;DHT22;53622;0.000;0.000;2023-03-26T05:04:52;20.90;52.20
66708;DHT22;53622;0.000;0.000;2023-03-26T05:07:27;20.90;52.30
66708;DHT22;53622;0.000;0.000;2023-03-26T05:10:00;20.90;52.30
66708;DHT22;53622;0.000;0.000;2023-03-26T05:12:52;20.80;52.20
66708;DHT22;53622;0.000;0.000;2023-03-26T05:15:26;20.80;52.20
66708;DHT22;53622;0.000;0.000;2023-03-26T05:18:08;20.80;52.20
66708;DHT22;53622;0.000;0.000;2023-03-26T05:20:46;20.90;52.30
66708;DHT22;53622;0.000;0.000;2023-03-26T05:23:15;20.90;52.20
66708;DHT22;53622;0.000;0.000;2023-03-26T05:25:51;20.80;52.20
66708;DHT22;53622;0.000;0.000;2023-03-26T05:28:24;20.80;52.20
66708;DHT22;53622;0.000;0.000;2023-03-26T05:30:58;20.80;52.20
66708;DHT22;53622;0.000;0.000;2023-03-26T05:33:32;20.80;52.20
66708;DHT22;53622;0.000;0.000;2023-03-26T05:36:11;20.80;52.20
66708;DHT22;53622;0.000;0.000;2023-03-26T05:38:53;20.80;52.20
66708;DHT22;53622;0.000;0.000;2023-03-26T05:41:46;20.80;52.20
66708;DHT22;53622;0.000;0.000;2023-03-26T05:44:17;20.80;52.30
66708;DHT22;53622;0.000;0.000;2023-03-26T05:46:46;20.80;52.30
66708;DHT22;53622;0.000;0.000;2023-03-26T05:49:20;20.80;52.30
66708;DHT22;53622;0.000;0.000;2023-03-26T05:51:51;20.80;52.40
66708;DHT22;53622;0.000;0.000;2023-03-26T05:54:38;20.80;52.30
66708;DHT22;53622;0.000;0.000;2023-03-26T05:57:31;20.80;52.30
66708;DHT22;53622;0.000;0.000;2023-03-26T06:00:22;20.80;52.30
66708;DHT22;53622;0.000;0.000;2023-03-26T06:02:53;20.80;52.30
66708;DHT22;53622;0.000;0.000;2023-03-26T06:05:52;20.80;52.30
66708;DHT22;53622;0.000;0.000;2023-03-26T06:08:41;20.80;52.30
66708;DHT22;53622;0.000;0.000;2023-03-26T06:11:14;20.80;52.30
66708;DHT22;53622;0.000;0.000;2023-03-26T06:13:44;20.80;52.30
66708;DHT22;53622;0.000;0.000;2023-03-26T06:16:15;20.80;52.30
66708;DHT22;53622;0.000;0.000;2023-03-26T06:19:09;20.80;52.30
66708;DHT22;53622;0.000;0.000;2023-03-26T06:21:57;20.80;52.40
66708;DHT22;53622;0.000;0.000;2023-03-26T06:24:35;20.70;52.30
66708;DHT22;53622;0.000;0.000;2023-03-26T06:27:44;20.70;52.30
66708;DHT22;53622;0.000;0.000;2023-03-26T06:30:39;20.70;52.30
66708;DHT22;53622;0.000;0.000;2023-03-26T06:33:27;20.70;52.30
66708;DHT22;53622;0.000;0.000;2023-03-26T06:35:58;20.70;52.30
66708;DHT22;53622;0.000;0.000;2023-03-26T06:38:28;20.70;52.40
66708;DHT22;53622;0.000;0.000;2023-03-26T06:41:05;20.70;52.40
66708;DHT22;53622;0.000;0.000;2023-03-26T06:43:37;20.70;52.50
66708;DHT22;53622;0.000;0.000;2023-03-26T06:46:16;20.70;52.60
66708;DHT22;53622;0.000;0.000;2023-03-26T06:49:17;20.70;52.70
66708;DHT22;53622;0.000;0.000;2023-03-26T06:52:04;20.70;52.70
66708;DHT22;53622;0.000;0.000;2023-03-26T06:54:42;20.70;52.70
66708;DHT22;53622;0.000;0.000;2023-03-26T06:57:33;20.70;52.70
66708;DHT22;53622;0.000;0.000;2023-03-26T07:00:09;20.70;52.80
66708;DHT22;53622;0.000;0.000;2023-03-26T07:02:58;20.60;52.80
66708;DHT22;53622;0.000;0.000;2023-03-26T07:05:46;20.70;52.80
66708;DHT22;53622;0.000;0.000;2023-03-26T07:08:42;20.60;52.70
66708;DHT22;53622;0.000;0.000;2023-03-26T07:11:31;20.70;52.80
66708;DHT22;53622;0.000;0.000;2023-03-26T07:14:21;20.60;52.80
66708;DHT22;53622;0.000;0.000;2023-03-26T07:17:17;20.60;52.70
66708;DHT22;53622;0.000;0.000;2023-03-26T07:19:54;20.70;52.80
66708;DHT22;53622;0.000;0.000;2023-03-26T07:22:28;20.60;52.90
66708;DHT22;53622;0.000;0.000;2023-03-26T07:25:05;20.60;52.80
66708;DHT22;53622;0.000;0.000;2023-03-26T07:27:48;20.70;53.70
66708;DHT22;53622;0.000;0.000;2023-03-26T07:30:33;20.80;54.30
66708;DHT22;53622;0.000;0.000;2023-03-26T07:33:37;20.90;54.20
66708;DHT22;53622;0.000;0.000;2023-03-26T07:36:51;21.10;54.70
66708;DHT22;53622;0.000;0.000;2023-03-26T07:39:48;21.20;55.10
66708;DHT22;53622;0.000;0.000;2023-03-26T07:42:56;21.30;54.60
66708;DHT22;53622;0.000;0.000;2023-03-26T07:45:47;21.40;54.50
66708;DHT22;53622;0.000;0.000;2023-03-26T07:48:24;21.50;54.60
66708;DHT22;53622;0.000;0.000;2023-03-26T07:51:17;21.60;54.60
66708;DHT22;53622;0.000;0.000;2023-03-26T07:54:13;21.60;54.40
66708;DHT22;53622;0.000;0.000;2023-03-26T07:57:05;21.70;54.40
66708;DHT22;53622;0.000;0.000;2023-03-26T07:59:48;21.70;54.20
66708;DHT22;53622;0.000;0.000;2023-03-26T08:02:54;21.80;54.20
66708;DHT22;53622;0.000;0.000;2023-03-26T08:05:53;21.80;54.00
66708;DHT22;53622;0.000;0.000;2023-03-26T08:08:37;21.80;53.90
66708;DHT22;53622;0.000;0.000;2023-03-26T08:14:32;21.90;54.20
66708;DHT22;53622;0.000;0.000;2023-03-26T08:17:08;22.00;54.20
66708;DHT22;53622;0.000;0.000;2023-03-26T08:20:05;22.10;53.80
66708;DHT22;53622;0.000;0.000;2023-03-26T08:22:54;22.20;53.60
66708;DHT22;53622;0.000;0.000;2023-03-26T08:25:49;22.20;53.50
66708;DHT22;53622;0.000;0.000;2023-03-26T08:28:36;22.20;53.40
66708;DHT22;53622;0.000;0.000;2023-03-26T08:31:10;22.20;53.30
66708;DHT22;53622;0.000;0.000;2023-03-26T08:33:41;22.30;53.30
66708;DHT22;53622;0.000;0.000;2023-03-26T08:36:12;22.30;53.30
66708;DHT22;53622;0.000;0.000;2023-03-26T08:38:41;22.30;53.20
66708;DHT22;53622;0.000;0.000;2023-03-26T08:57:39;22.40;53.10
66708;DHT22;53622;0.000;0.000;2023-03-26T09:00:32;22.50;52.90
66708;DHT22;53622;0.000;0.000;2023-03-26T09:03:30;22.60;52.60
66708;DHT22;53622;0.000;0.000;2023-03-26T09:06:40;22.70;52.60
66708;DHT22;53622;0.000;0.000;2023-03-26T09:09:48;22.70;52.60
66708;DHT22;53622;0.000;0.000;2023-03-26T09:12:43;22.60;52.50
66708;DHT22;53622;0.000;0.000;2023-03-26T09:25:16;22.80;52.10
66708;DHT22;53622;0.000;0.000;2023-03-26T09:28:14;22.90;52.10
66708;DHT22;53622;0.000;0.000;2023-03-26T09:31:15;22.90;52.00
66708;DHT22;53622;0.000;0.000;2023-03-26T09:33:56;23.00;51.70
66708;DHT22;53622;0.000;0.000;2023-03-26T09:36:39;23.00;51.60
66708;DHT22;53622;0.000;0.000;2023-03-26T09:39:16;23.10;51.60
66708;DHT22;53622;0.000;0.000;2023-03-26T09:42:04;23.00;52.10
66708;DHT22;53622;0.000;0.000;2023-03-26T09:44:57;23.00;51.60
66708;DHT22;53622;0.000;0.000;2023-03-26T09:47:43;23.00;51.60
66708;DHT22;53622;0.000;0.000;2023-03-26T09:50:29;23.00;51.60
66708;DHT22;53622;0.000;0.000;2023-03-26T09:56:15;23.10;51.40
66708;DHT22;53622;0.000;0.000;2023-03-26T09:59:07;23.00;51.40
66708;DHT22;53622;0.000;0.000;2023-03-26T10:01:43;22.90;51.40
66708;DHT22;53622;0.000;0.000;2023-03-26T10:04:41;22.80;51.50
66708;DHT22;53622;0.000;0.000;2023-03-26T10:07:26;22.60;51.50
66708;DHT22;53622;0.000;0.000;2023-03-26T10:10:04;22.50;51.60
66708;DHT22;53622;0.000;0.000;2023-03-26T10:12:37;22.50;51.80
66708;DHT22;53622;0.000;0.000;2023-03-26T10:15:23;22.40;51.70
66708;DHT22;53622;0.000;0.000;2023-03-26T10:18:08;22.30;51.80
66708;DHT22;53622;0.000;0.000;2023-03-26T10:21:02;22.30;51.90
66708;DHT22;53622;0.000;0.000;2023-03-26T10:23:58;22.20;52.00
66708;DHT22;53622;0.000;0.000;2023-03-26T10:26:46;22.20;52.10
66708;DHT22;53622;0.000;0.000;2023-03-26T10:30:01;22.20;52.40
66708;DHT22;53622;0.000;0.000;2023-03-26T10:32:44;22.10;52.60
66708;DHT22;53622;0.000;0.000;2023-03-26T10:35:22;22.10;52.40
66708;DHT22;53622;0.000;0.000;2023-03-26T10:38:00;22.10;52.50
66708;DHT22;53622;0.000;0.000;2023-03-26T10:40:38;22.00;52.60
66708;DHT22;53622;0.000;0.000;2023-03-26T10:43:22;22.00;52.70
66708;DHT22;53622;0.000;0.000;2023-03-26T10:46:08;21.90;52.80
66708;DHT22;53622;0.000;0.000;2023-03-26T10:51:47;21.90;52.90
66708;DHT22;53622;0.000;0.000;2023-03-26T10:54:29;21.90;53.30
66708;DHT22;53622;0.000;0.000;2023-03-26T10:57:06;21.90;53.50
66708;DHT22;53622;0.000;0.000;2023-03-26T10:59:39;21.90;53.40
66708;DHT22;53622;0.000;0.000;2023-03-26T11:02:26;21.80;53.30
66708;DHT22;53622;0.000;0.000;2023-03-26T11:05:17;21.80;53.50
66708;DHT22;53622;0.000;0.000;2023-03-26T11:07:53;21.80;53.60
66708;DHT22;53622;0.000;0.000;2023-03-26T11:10:38;21.80;53.60
66708;DHT22;53622;0.000;0.000;2023-03-26T11:13:16;21.70;53.70
66708;DHT22;53622;0.000;0.000;2023-03-26T11:15:49;21.70;53.80
66708;DHT22;53622;0.000;0.000;2023-03-26T11:18:23;21.70;53.70
66708;DHT22;53622;0.000;0.000;2023-03-26T11:21:07;21.70;53.70
66708;DHT22;53622;0.000;0.000;2023-03-26T11:23:57;21.70;53.70
66708;DHT22;53622;0.000;0.000;2023-03-26T11:26:41;21.70;53.80
66708;DHT22;53622;0.000;0.000;2023-03-26T11:29:26;21.70;53.80
66708;DHT22;53622;0.000;0.000;2023-03-26T11:32:21;21.60;53.80
66708;DHT22;53622;0.000;0.000;2023-03-26T11:34:57;21.60;53.80
66708;DHT22;53622;0.000;0.000;2023-03-26T11:37:33;21.60;53.80
66708;DHT22;53622;0.000;0.000;2023-03-26T11:40:11;21.60;53.90
66708;DHT22;53622;0.000;0.000;2023-03-26T11:42:42;21.60;53.90
66708;DHT22;53622;0.000;0.000;2023-03-26T11:45:16;21.60;53.90
66708;DHT22;53622;0.000;0.000;2023-03-26T11:47:49;21.60;53.90
66708;DHT22;53622;0.000;0.000;2023-03-26T11:50:24;21.60;53.90
66708;DHT22;53622;0.000;0.000;2023-03-26T11:52:57;21.60;53.90
66708;DHT22;53622;0.000;0.000;2023-03-26T11:55:28;21.60;53.90
66708;DHT22;53622;0.000;0.000;2023-03-26T11:58:00;21.60;54.00
66708;DHT22;53622;0.000;0.000;2023-03-26T12:00:31;21.60;54.00
66708;DHT22;53622;0.000;0.000;2023-03-26T12:03:01;21.60;54.00
66708;DHT22;53622;0.000;0.000;2023-03-26T12:05:46;21.60;54.00
66708;DHT22;53622;0.000;0.000;2023-03-26T12:08:26;21.60;54.00
66708;DHT22;53622;0.000;0.000;2023-03-26T12:11:06;21.60;54.00
66708;DHT22;53622;0.000;0.000;2023-03-26T12:13:39;21.50;54.00
66708;DHT22;53622;0.000;0.000;2023-03-26T12:16:14;21.50;54.60
66708;DHT22;53622;0.000;0.000;2023-03-26T12:18:45;21.50;54.00
66708;DHT22;53622;0.000;0.000;2023-03-26T12:21:16;21.50;54.10
66708;DHT22;53622;0.000;0.000;2023-03-26T12:23:58;21.50;54.10
66708;DHT22;53622;0.000;0.000;2023-03-26T12:26:36;21.50;54.00
66708;DHT22;53622;0.000;0.000;2023-03-26T12:29:09;21.50;54.10
66708;DHT22;53622;0.000;0.000;2023-03-26T12:31:50;21.50;54.70
66708;DHT22;53622;0.000;0.000;2023-03-26T12:34:21;21.50;54.70
66708;DHT22;53622;0.000;0.000;2023-03-26T12:36:52;21.50;54.10
66708;DHT22;53622;0.000;0.000;2023-03-26T12:39:32;21.50;54.10
66708;DHT22;53622;0.000;0.000;2023-03-26T12:42:25;21.50;54.10
66708;DHT22;53622;0.000;0.000;2023-03-26T12:45:15;21.50;54.20
66708;DHT22;53622;0.000;0.000;2023-03-26T12:47:44;21.50;54.10
66708;DHT22;53622;0.000;0.000;2023-03-26T12:50:38;21.50;54.00
66708;DHT22;53622;0.000;0.000;2023-03-26T12:53:32;21.50;54.10
66708;DHT22;53622;0.000;0.000;2023-03-26T12:56:15;21.50;54.10
66708;DHT22;53622;0.000;0.000;2023-03-26T12:59:16;21.50;54.10
66708;DHT22;53622;0.000;0.000;2023-03-26T13:01:53;21.50;54.00
66708;DHT22;53622;0.000;0.000;2023-03-26T13:04:36;21.40;54.00
66708;DHT22;53622;0.000;0.000;2023-03-26T13:07:34;21.40;53.90
66708;DHT22;53622;0.000;0.000;2023-03-26T13:10:31;21.40;53.80
66708;DHT22;53622;0.000;0.000;2023-03-26T13:13:16;21.40;53.70
66708;DHT22;53622;0.000;0.000;2023-03-26T13:15:51;21.40;53.70
66708;DHT22;53622;0.000;0.000;2023-03-26T13:18:31;21.40;53.70
66708;DHT22;53622;0.000;0.000;2023-03-26T13:21:07;21.40;53.70
66708;DHT22;53622;0.000;0.000;2023-03-26T13:23:45;21.40;53.70
66708;DHT22;53622;0.000;0.000;2023-03-26T13:26:36;21.40;53.70
66708;DHT22;53622;0.000;0.000;2023-03-26T13:29:16;21.40;53.70
66708;DHT22;53622;0.000;0.000;2023-03-26T13:31:52;21.40;53.70
66708;DHT22;53622;0.000;0.000;2023-03-26T13:34:28;21.40;53.70
66708;DHT22;53622;0.000;0.000;2023-03-26T13:37:06;21.40;53.60
66708;DHT22;53622;0.000;0.000;2023-03-26T13:39:49;21.40;53.60
66708;DHT22;53622;0.000;0.000;2023-03-26T13:42:31;21.40;53.60
66708;DHT22;53622;0.000;0.000;2023-03-26T13:45:13;21.40;53.60
66708;DHT22;53622;0.000;0.000;2023-03-26T13:47:46;21.40;53.60
66708;DHT22;53622;0.000;0.000;2023-03-26T13:50:20;21.30;53.60
66708;DHT22;53622;0.000;0.000;2023-03-26T13:52:57;21.40;53.70
66708;DHT22;53622;0.000;0.000;2023-03-26T13:55:30;21.40;53.70
66708;DHT22;53622;0.000;0.000;2023-03-26T13:58:05;21.30;53.60
66708;DHT22;53622;0.000;0.000;2023-03-26T14:00:50;21.30;53.60
66708;DHT22;53622;0.000;0.000;2023-03-26T14:03:26;21.30;53.60
66708;DHT22;53622;0.000;0.000;2023-03-26T14:05:59;21.30;53.60
66708;DHT22;53622;0.000;0.000;2023-03-26T14:08:36;21.30;53.70
66708;DHT22;53622;0.000;0.000;2023-03-26T14:11:11;21.30;53.60
66708;DHT22;53622;0.000;0.000;2023-03-26T14:13:46;21.30;53.50
66708;DHT22;53622;0.000;0.000;2023-03-26T14:16:20;21.30;53.60
66708;DHT22;53622;0.000;0.000;2023-03-26T14:18:55;21.30;53.50
66708;DHT22;53622;0.000;0.000;2023-03-26T14:21:55;21.30;53.60
66708;DHT22;53622;0.000;0.000;2023-03-26T14:27:37;21.30;53.70
66708;DHT22;53622;0.000;0.000;2023-03-26T14:30:52;21.30;53.70
66708;DHT22;53622;0.000;0.000;2023-03-26T14:33:59;21.30;53.70
66708;DHT22;53622;0.000;0.000;2023-03-26T14:36:58;21.30;53.70
66708;DHT22;53622;0.000;0.000;2023-03-26T14:42:52;21.30;53.70
66708;DHT22;53622;0.000;0.000;2023-03-26T14:45:57;21.30;53.60
66708;DHT22;53622;0.000;0.000;2023-03-26T14:49:06;21.30;53.60
66708;DHT22;53622;0.000;0.000;2023-03-26T14:51:51;21.30;53.70
66708;DHT22;53622;0.000;0.000;2023-03-26T14:54:26;21.30;53.60
66708;DHT22;53622;0.000;0.000;2023-03-26T15:00:33;21.30;53.70
66708;DHT22;53622;0.000;0.000;2023-03-26T15:10:10;21.30;53.80
66708;DHT22;53622;0.000;0.000;2023-03-26T15:12:53;21.20;53.80
66708;DHT22;53622;0.000;0.000;2023-03-26T15:19:05;21.20;53.80
66708;DHT22;53622;0.000;0.000;2023-03-26T15:28:51;21.20;53.90
66708;DHT22;53622;0.000;0.000;2023-03-26T15:31:47;21.20;54.00
66708;DHT22;53622;0.000;0.000;2023-03-26T15:37:55;21.20;53.90
66708;DHT22;53622;0.000;0.000;2023-03-26T15:41:01;21.20;53.90
66708;DHT22;53622;0.000;0.000;2023-03-26T15:44:03;21.20;53.90
66708;DHT22;53622;0.000;0.000;2023-03-26T15:46:57;21.20;53.90
66708;DHT22;53622;0.000;0.000;2023-03-26T15:49:39;21.20;53.90
66708;DHT22;53622;0.000;0.000;2023-03-26T15:52:20;21.20;54.00
66708;DHT22;53622;0.000;0.000;2023-03-26T15:54:58;21.20;53.90
66708;DHT22;53622;0.000;0.000;2023-03-26T15:57:35;21.30;54.30
66708;DHT22;53622;0.000;0.000;2023-03-26T16:00:19;21.40;54.20
66708;DHT22;53622;0.000;0.000;2023-03-26T16:02:58;21.60;54.30
66708;DHT22;53622;0.000;0.000;2023-03-26T16:06:03;21.70;54.00
66708;DHT22;53622;0.000;0.000;2023-03-26T16:08:42;21.90;53.70
66708;DHT22;53622;0.000;0.000;2023-03-26T16:11:42;22.00;53.60
66708;DHT22;53622;0.000;0.000;2023-03-26T16:14:17;22.10;53.50
66708;DHT22;53622;0.000;0.000;2023-03-26T16:16:54;22.10;53.40
66708;DHT22;53622;0.000;0.000;2023-03-26T16:19:48;22.20;53.20
66708;DHT22;53622;0.000;0.000;2023-03-26T16:22:44;22.30;53.20
66708;DHT22;53622;0.000;0.000;2023-03-26T16:25:25;22.20;53.00
66708;DHT22;53622;0.000;0.000;2023-03-26T16:28:27;22.20;53.00
66708;DHT22;53622;0.000;0.000;2023-03-26T16:31:27;22.20;53.10
66708;DHT22;53622;0.000;0.000;2023-03-26T16:34:27;22.30;53.10
66708;DHT22;53622;0.000;0.000;2023-03-26T16:37:36;22.30;53.00
66708;DHT22;53622;0.000;0.000;2023-03-26T16:40:26;22.30;52.90
66708;DHT22;53622;0.000;0.000;2023-03-26T16:43:05;22.40;52.80
66708;DHT22;53622;0.000;0.000;2023-03-26T16:45:47;22.50;52.70
66708;DHT22;53622;0.000;0.000;2023-03-26T16:48:24;22.60;52.60
66708;DHT22;53622;0.000;0.000;2023-03-26T16:51:05;22.70;52.60
66708;DHT22;53622;0.000;0.000;2023-03-26T16:53:46;22.70;52.50
66708;DHT22;53622;0.000;0.000;2023-03-26T16:56:29;22.60;52.50
66708;DHT22;53622;0.000;0.000;2023-03-26T16:59:06;22.60;52.30
66708;DHT22;53622;0.000;0.000;2023-03-26T17:01:41;22.60;52.60
66708;DHT22;53622;0.000;0.000;2023-03-26T17:04:15;22.60;52.60
66708;DHT22;53622;0.000;0.000;2023-03-26T17:06:57;22.60;52.80
66708;DHT22;53622;0.000;0.000;2023-03-26T17:09:35;22.50;52.60
66708;DHT22;53622;0.000;0.000;2023-03-26T17:12:15;22.50;52.40
66708;DHT22;53622;0.000;0.000;2023-03-26T17:15:06;22.60;52.50
66708;DHT22;53622;0.000;0.000;2023-03-26T17:17:50;22.60;52.60
66708;DHT22;53622;0.000;0.000;2023-03-26T17:20:28;22.70;52.60
66708;DHT22;53622;0.000;0.000;2023-03-26T17:23:24;22.70;52.60
66708;DHT22;53622;0.000;0.000;2023-03-26T17:26:02;22.80;52.30
66708;DHT22;53622;0.000;0.000;2023-03-26T17:28:56;22.80;52.20
66708;DHT22;53622;0.000;0.000;2023-03-26T17:31:39;22.90;52.10
66708;DHT22;53622;0.000;0.000;2023-03-26T17:37:43;22.90;52.30
66708;DHT22;53622;0.000;0.000;2023-03-26T17:40:49;22.90;52.10
66708;DHT22;53622;0.000;0.000;2023-03-26T17:43:42;22.80;52.50
66708;DHT22;53622;0.000;0.000;2023-03-26T17:46:30;22.80;52.10
66708;DHT22;53622;0.000;0.000;2023-03-26T17:49:12;22.70;51.30
66708;DHT22;53622;0.000;0.000;2023-03-26T17:51:49;22.60;51.50
66708;DHT22;53622;0.000;0.000;2023-03-26T17:54:23;22.60;51.30
66708;DHT22;53622;0.000;0.000;2023-03-26T17:57:01;22.60;51.50
66708;DHT22;53622;0.000;0.000;2023-03-26T17:59:32;22.60;52.60
66708;DHT22;53622;0.000;0.000;2023-03-26T18:02:06;22.60;52.10
66708;DHT22;53622;0.000;0.000;2023-03-26T18:04:42;22.70;52.70
66708;DHT22;53622;0.000;0.000;2023-03-26T18:07:38;22.70;52.80
66708;DHT22;53622;0.000;0.000;2023-03-26T18:10:23;22.70;52.80
66708;DHT22;53622;0.000;0.000;2023-03-26T18:13:36;22.80;52.90
66708;DHT22;53622;0.000;0.000;2023-03-26T18:16:11;22.80;53.00
66708;DHT22;53622;0.000;0.000;2023-03-26T18:18:46;22.80;52.90
66708;DHT22;53622;0.000;0.000;2023-03-26T18:21:21;22.90;52.80
66708;DHT22;53622;0.000;0.000;2023-03-26T18:23:51;22.90;52.70